Main page
METAR-TAF:

METAR-TAF

Airports :

Sabzevar Airport

Sabzevar, Iran

latitude: 36-13N, longitude: 057-40E, elevation: 941 m

Current weather observation

The report was made 8 hours and 54 minutes ago, at 15:00 UTC
Wind 25 kt from the North
Temperature 30°C
Humidity 27%
Pressure 1009 hPa
Visibility 10 km or more
Few clouds at a height of 3500 ft

METAR: OIMS 141500Z 35025KT 9999 FEW035 30/09 Q1009

Time: 04:24 (23:54 UTC)


TAF: missing

Weather observations and forecasts of more than 4000 airports (METAR and TAF reports).

The available stations are represented by yellow and red dots on the map.

Hover mouse over dot to see the name of the station.

Then click to see weather observations and forecasts.

To change the map : click on the green buttons with a black cross to zoom in, on the green button with a dash to zoom out, or on the green arrows for adjacent maps.


METAR-TAF: